Terminal Aerodrome Forecast
Issued by NWS

Home | Current Version | Previous Version | Text Only | Print | Product List | Glossary On
Versions: 1 2 3 4 5 6 7 8 9 10 11 12 13 14 15 16
000
FTUS45 KABQ 251720
TAFSAF
TAF
KSAF 251720Z 2518/2618 28017G25KT P6SM SCT060
     FM260000 30010KT P6SM FEW100
     FM260200 36007KT P6SM SKC
      TEMPO 2612/2616 36012G20KT=

USA.gov is the U.S. government's official web portal to all federal, state and local government web resources and services.